Mac Dill Air Force Base Tampa US
ICAO: KMCF
IATA: MCF
Category: Large
Scheduled Services: No

Elevation: 14 ft
TransAlt. 18000 ft.

Airport Communications:
TAMPA APP:124.95
ATIS:133.825
TAMPA DEP:119.65
GND:118.575
PMSV METRO:34.46
6 AMW COMD POST:138.95
PTD:37.22
TWR:123.7

KMCF Zoom In..

Runways:

(A) RW 04 length 11421 ft width 151 ft
ILS 109.50 / hdg 45

(B) RW 22 length 11421 ft width 151 ft
ILS 111.70 / hdg 225

Location; KMCF
Day. 04 / Time. 16.18 Zulu
* Altimeter: 30.12
* Temperature: 21° c. 69.8°f.
* Wind from: 140° Speed 09 kn.
Dewpoint: 15° c.
Visibility: 10 Statute Miles.
Clouds: Scattered 1000 ft.
Clouds: Broken 13000 ft.
Conditions: Slight Drizzle.

KMCF 041618Z AUTO 14009KT 10SM -DZ SCT100 BKN130 21/15 A3012 RMK AO2 DZB18 SLP203 FZRANO $

Going to: --> -->


Wind From 140°
Speed 09 kn.

 
 
jpsmedia worldairports.se 2020   terms of use